Flight Track Log - Related Links

Times and Time Zones

All times are in EDT time to prevent confusion due to time zone crossing. See the WIG1042 flight status page for this flight to view local times or setup timezone preferences in your user account.


Time Position Orientation Groundspeed Altitude Reporting Facility
EDT Latitude Longitude Course Direction KTS MPH feet Rate Location/Type
Thu 07:00:06 AM 42.9500 -71.4167 324° Northwest 133 153 800  Level KA90
Thu 07:00:42 AM 42.9667 -71.4333 324° Northwest 148 170 1,700 1,250 Climbing KA90
Thu 07:01:42 AM 43.0167 -71.4667 334° Northwest 165 190 2,800 1,150 Climbing KA90
Thu 07:02:42 AM 43.0500 -71.5000 324° Northwest 169 194 4,000 1,106 Climbing KA90
Thu 07:04:03 AM 43.0972 -71.5531 321° Northwest 184 212 5,400 1,091 Climbing Boston Center
Thu 07:05:05 AM 43.1350 -71.5950 321° Northwest 173 199 6,600 976 Climbing Boston Center
Thu 07:06:06 AM 43.1686 -71.6372 318° Northwest 168 193 7,400 655 Climbing Boston Center
Thu 07:07:04 AM 43.2064 -71.6794 321° Northwest 169 194 7,900 305 Climbing Boston Center
Thu 07:08:04 AM 43.2464 -71.7303 317° Northwest 186 214 8,000 50 Climbing Boston Center
Thu 07:09:05 AM 43.2925 -71.7869 318° Northwest 211 243 8,000  Level Boston Center
Thu 07:10:06 AM 43.3408 -71.8319 326° Northwest 216 249 8,000  Level Boston Center
Thu 07:11:06 AM 43.3869 -71.8858 320° Northwest 216 249 8,000 -51 Level Boston Center
Thu 07:12:04 AM 43.4331 -71.9425 318° Northwest 216 249 7,900  Descending Boston Center
Thu 07:13:03 AM 43.4769 -71.9967 318° Northwest 216 249 8,000  Climbing Boston Center
Thu 07:14:03 AM 43.5231 -72.0478 321° Northwest 211 243 7,900 -50 Descending Boston Center
Thu 07:15:04 AM 43.5711 -72.1047 319° Northwest 211 243 7,900  Level Boston Center
Thu 07:16:04 AM 43.6192 -72.1561 322° Northwest 211 243 7,900 -50 Level Boston Center
Thu 07:17:05 AM 43.6653 -72.2106 320° Northwest 211 243 7,800  Descending Boston Center
Thu 07:18:05 AM 43.7111 -72.2650 319° Northwest 211 243 7,900 50 Climbing Boston Center
Thu 07:19:05 AM 43.7592 -72.3164 322° Northwest 211 243 7,900 50 Level Boston Center
Thu 07:20:06 AM 43.8111 -72.3681 324° Northwest 217 250 8,000  Climbing Boston Center
Thu 07:21:05 AM 43.8572 -72.4200 321° Northwest 217 250 7,900 -50 Descending Boston Center
Thu 07:22:05 AM 43.9050 -72.4747 320° Northwest 217 250 7,900 50 Level Boston Center
Thu 07:23:04 AM 43.9508 -72.5294 319° Northwest 217 250 8,000 101 Climbing Boston Center
Thu 07:24:04 AM 43.9967 -72.5844 319° Northwest 211 243 8,100 -49 Climbing Boston Center
Thu 07:25:06 AM 44.0425 -72.6422 318° Northwest 217 250 7,900 -101 Descending Boston Center
Thu 07:26:03 AM 44.0839 -72.7003 315° West 217 250 7,900  Level Boston Center
Thu 07:27:04 AM 44.1339 -72.7525 323° Northwest 222 255 7,900  Level Boston Center
Thu 07:28:05 AM 44.1858 -72.7903 332° Northwest 222 255 7,900  Level Boston Center
Thu 07:29:04 AM 44.2419 -72.8256 336° Northwest 222 255 7,900  Level Boston Center
Thu 07:30:04 AM 44.2981 -72.8694 331° Northwest 222 255 7,900 -393 Level Boston Center
Thu 07:31:06 AM 44.3500 -72.9161 327° Northwest 222 255 7,100 -504 Descending Boston Center
Thu 07:32:03 AM 44.4019 -72.9603 329° Northwest 234 269 6,900 -252 Descending Boston Center
Thu 07:33:05 AM 44.4578 -72.9986 334° Northwest 228 262 6,600 -689 Descending Boston Center
Thu 07:34:05 AM 44.5117 -73.0514 325° Northwest 228 262 5,500 -1,150 Descending Boston Center
Thu 07:35:05 AM 44.5614 -73.1103 320° Northwest 234 269 4,300 -793 Descending Boston Center
Thu 07:36:06 AM 44.6131 -73.1719 320° Northwest 234 269 3,900 -203 Descending Boston Center
Thu 07:37:03 AM 44.6378 -73.2219 305° West 189 217 3,900 -153 Level Boston Center
Thu 07:38:04 AM 44.6561 -73.2833 293° West 168 193 3,600 -295 Descending Boston Center

Login

Don't have an account? Register now (free) for customized features, flight alerts, and more!